sensor_id;sensor_type;location;lat;lon;timestamp;P1;durP1;ratioP1;P2;durP2;ratioP2
19030;SDS011;9648;51.130;13.978;2023-06-26T00:00:05;13.45;;;9.13;;
19030;SDS011;9648;51.130;13.978;2023-06-26T00:02:33;11.43;;;7.90;;
19030;SDS011;9648;51.130;13.978;2023-06-26T00:05:00;10.80;;;7.83;;
19030;SDS011;9648;51.130;13.978;2023-06-26T00:07:28;8.82;;;7.32;;
19030;SDS011;9648;51.130;13.978;2023-06-26T00:09:57;8.75;;;7.20;;
19030;SDS011;9648;51.130;13.978;2023-06-26T00:12:24;8.83;;;7.00;;
19030;SDS011;9648;51.130;13.978;2023-06-26T00:14:50;8.75;;;7.45;;
19030;SDS011;9648;51.130;13.978;2023-06-26T00:17:17;8.27;;;7.07;;
19030;SDS011;9648;51.130;13.978;2023-06-26T00:19:44;9.20;;;6.70;;
19030;SDS011;9648;51.130;13.978;2023-06-26T00:22:11;9.15;;;7.65;;
19030;SDS011;9648;51.130;13.978;2023-06-26T00:24:38;9.38;;;6.63;;
19030;SDS011;9648;51.130;13.978;2023-06-26T00:27:06;9.57;;;6.97;;
19030;SDS011;9648;51.130;13.978;2023-06-26T00:29:33;10.32;;;7.35;;
19030;SDS011;9648;51.130;13.978;2023-06-26T00:32:00;9.00;;;7.25;;
19030;SDS011;9648;51.130;13.978;2023-06-26T00:34:27;9.27;;;7.30;;
19030;SDS011;9648;51.130;13.978;2023-06-26T00:36:54;9.43;;;7.50;;
19030;SDS011;9648;51.130;13.978;2023-06-26T00:39:20;9.55;;;7.20;;
19030;SDS011;9648;51.130;13.978;2023-06-26T00:41:51;9.55;;;6.90;;
19030;SDS011;9648;51.130;13.978;2023-06-26T00:44:20;9.73;;;7.20;;
19030;SDS011;9648;51.130;13.978;2023-06-26T00:46:47;8.90;;;6.90;;
19030;SDS011;9648;51.130;13.978;2023-06-26T00:49:13;8.15;;;6.63;;
19030;SDS011;9648;51.130;13.978;2023-06-26T00:51:40;8.63;;;6.97;;
19030;SDS011;9648;51.130;13.978;2023-06-26T00:54:08;9.15;;;7.10;;
19030;SDS011;9648;51.130;13.978;2023-06-26T00:56:35;11.48;;;7.70;;
19030;SDS011;9648;51.130;13.978;2023-06-26T00:59:01;11.07;;;7.03;;
19030;SDS011;9648;51.130;13.978;2023-06-26T01:01:30;9.85;;;7.00;;
19030;SDS011;9648;51.130;13.978;2023-06-26T01:03:57;9.25;;;6.72;;
19030;SDS011;9648;51.130;13.978;2023-06-26T01:06:23;9.20;;;7.35;;
19030;SDS011;9648;51.130;13.978;2023-06-26T01:08:54;9.75;;;7.05;;
19030;SDS011;9648;51.130;13.978;2023-06-26T01:11:21;9.90;;;7.25;;
19030;SDS011;9648;51.130;13.978;2023-06-26T01:13:48;8.33;;;6.63;;
19030;SDS011;9648;51.130;13.978;2023-06-26T01:16:16;8.98;;;7.38;;
19030;SDS011;9648;51.130;13.978;2023-06-26T01:18:46;9.20;;;7.47;;
19030;SDS011;9648;51.130;13.978;2023-06-26T01:21:14;11.33;;;7.83;;
19030;SDS011;9648;51.130;13.978;2023-06-26T01:23:45;9.20;;;7.33;;
19030;SDS011;9648;51.130;13.978;2023-06-26T01:26:24;10.27;;;7.50;;
19030;SDS011;9648;51.130;13.978;2023-06-26T01:28:54;9.45;;;7.20;;
19030;SDS011;9648;51.130;13.978;2023-06-26T01:31:23;9.55;;;6.82;;
19030;SDS011;9648;51.130;13.978;2023-06-26T01:33:50;9.80;;;7.00;;
19030;SDS011;9648;51.130;13.978;2023-06-26T01:36:17;8.43;;;7.03;;
19030;SDS011;9648;51.130;13.978;2023-06-26T01:38:44;10.90;;;7.40;;
19030;SDS011;9648;51.130;13.978;2023-06-26T01:41:11;10.57;;;7.70;;
19030;SDS011;9648;51.130;13.978;2023-06-26T01:43:43;10.82;;;7.32;;
19030;SDS011;9648;51.130;13.978;2023-06-26T01:46:25;10.10;;;7.53;;
19030;SDS011;9648;51.130;13.978;2023-06-26T01:48:59;8.50;;;6.95;;
19030;SDS011;9648;51.130;13.978;2023-06-26T01:51:31;9.43;;;7.15;;
19030;SDS011;9648;51.130;13.978;2023-06-26T01:54:02;10.00;;;7.30;;
19030;SDS011;9648;51.130;13.978;2023-06-26T01:56:30;9.18;;;7.18;;
19030;SDS011;9648;51.130;13.978;2023-06-26T01:58:59;10.77;;;7.50;;
19030;SDS011;9648;51.130;13.978;2023-06-26T02:01:29;9.20;;;7.28;;
19030;SDS011;9648;51.130;13.978;2023-06-26T02:03:58;9.20;;;7.15;;
19030;SDS011;9648;51.130;13.978;2023-06-26T02:06:25;9.23;;;7.65;;
19030;SDS011;9648;51.130;13.978;2023-06-26T02:08:52;9.82;;;7.18;;
19030;SDS011;9648;51.130;13.978;2023-06-26T02:11:21;8.18;;;6.75;;
19030;SDS011;9648;51.130;13.978;2023-06-26T02:13:48;8.20;;;6.68;;
19030;SDS011;9648;51.130;13.978;2023-06-26T02:16:16;10.02;;;7.03;;
19030;SDS011;9648;51.130;13.978;2023-06-26T02:18:43;8.57;;;6.97;;
19030;SDS011;9648;51.130;13.978;2023-06-26T02:21:10;8.95;;;6.60;;
19030;SDS011;9648;51.130;13.978;2023-06-26T02:23:36;8.85;;;6.65;;
19030;SDS011;9648;51.130;13.978;2023-06-26T02:26:04;8.43;;;6.43;;
19030;SDS011;9648;51.130;13.978;2023-06-26T02:28:30;8.80;;;6.47;;
19030;SDS011;9648;51.130;13.978;2023-06-26T02:30:59;9.85;;;6.75;;
19030;SDS011;9648;51.130;13.978;2023-06-26T02:33:27;9.32;;;6.50;;
19030;SDS011;9648;51.130;13.978;2023-06-26T02:35:54;9.43;;;7.30;;
19030;SDS011;9648;51.130;13.978;2023-06-26T02:38:20;9.23;;;6.50;;
19030;SDS011;9648;51.130;13.978;2023-06-26T02:40:47;10.65;;;7.25;;
19030;SDS011;9648;51.130;13.978;2023-06-26T02:43:14;8.18;;;6.97;;
19030;SDS011;9648;51.130;13.978;2023-06-26T02:45:41;14.23;;;7.30;;
19030;SDS011;9648;51.130;13.978;2023-06-26T02:48:07;11.48;;;7.53;;
19030;SDS011;9648;51.130;13.978;2023-06-26T02:50:35;10.43;;;7.15;;
19030;SDS011;9648;51.130;13.978;2023-06-26T02:53:02;9.68;;;7.40;;
19030;SDS011;9648;51.130;13.978;2023-06-26T02:55:33;9.02;;;7.10;;
19030;SDS011;9648;51.130;13.978;2023-06-26T02:58:00;9.07;;;6.80;;
19030;SDS011;9648;51.130;13.978;2023-06-26T03:00:27;8.90;;;6.95;;
19030;SDS011;9648;51.130;13.978;2023-06-26T03:02:55;9.38;;;7.00;;
19030;SDS011;9648;51.130;13.978;2023-06-26T03:05:22;10.82;;;7.47;;
19030;SDS011;9648;51.130;13.978;2023-06-26T03:07:50;9.20;;;6.75;;
19030;SDS011;9648;51.130;13.978;2023-06-26T03:10:17;9.63;;;7.75;;
19030;SDS011;9648;51.130;13.978;2023-06-26T03:12:44;9.63;;;6.93;;
19030;SDS011;9648;51.130;13.978;2023-06-26T03:15:10;8.32;;;6.75;;
19030;SDS011;9648;51.130;13.978;2023-06-26T03:17:37;8.60;;;7.00;;
19030;SDS011;9648;51.130;13.978;2023-06-26T03:20:04;9.07;;;6.70;;
19030;SDS011;9648;51.130;13.978;2023-06-26T03:22:32;8.77;;;7.13;;
19030;SDS011;9648;51.130;13.978;2023-06-26T03:25:01;8.00;;;6.93;;
19030;SDS011;9648;51.130;13.978;2023-06-26T03:27:28;9.80;;;6.95;;
19030;SDS011;9648;51.130;13.978;2023-06-26T03:29:54;10.35;;;7.38;;
19030;SDS011;9648;51.130;13.978;2023-06-26T03:32:21;11.73;;;6.88;;
19030;SDS011;9648;51.130;13.978;2023-06-26T03:34:48;8.93;;;7.18;;
19030;SDS011;9648;51.130;13.978;2023-06-26T03:37:15;8.52;;;6.38;;
19030;SDS011;9648;51.130;13.978;2023-06-26T03:39:41;8.90;;;6.72;;
19030;SDS011;9648;51.130;13.978;2023-06-26T03:42:09;8.85;;;6.90;;
19030;SDS011;9648;51.130;13.978;2023-06-26T03:44:36;8.45;;;7.00;;
19030;SDS011;9648;51.130;13.978;2023-06-26T03:47:03;10.57;;;7.10;;
19030;SDS011;9648;51.130;13.978;2023-06-26T03:49:30;9.20;;;7.00;;
19030;SDS011;9648;51.130;13.978;2023-06-26T03:51:57;10.23;;;7.13;;
19030;SDS011;9648;51.130;13.978;2023-06-26T03:54:23;9.53;;;6.83;;
19030;SDS011;9648;51.130;13.978;2023-06-26T03:56:51;7.63;;;6.45;;
19030;SDS011;9648;51.130;13.978;2023-06-26T03:59:19;9.40;;;7.05;;
19030;SDS011;9648;51.130;13.978;2023-06-26T04:01:45;10.18;;;7.20;;
19030;SDS011;9648;51.130;13.978;2023-06-26T04:04:12;9.13;;;6.90;;
19030;SDS011;9648;51.130;13.978;2023-06-26T04:06:39;8.63;;;6.75;;
19030;SDS011;9648;51.130;13.978;2023-06-26T04:09:06;9.77;;;7.18;;
19030;SDS011;9648;51.130;13.978;2023-06-26T04:11:33;8.18;;;6.88;;
19030;SDS011;9648;51.130;13.978;2023-06-26T04:13:59;10.13;;;7.00;;
19030;SDS011;9648;51.130;13.978;2023-06-26T04:16:28;8.18;;;6.88;;
19030;SDS011;9648;51.130;13.978;2023-06-26T04:18:55;10.38;;;7.70;;
19030;SDS011;9648;51.130;13.978;2023-06-26T04:21:23;10.43;;;7.20;;
19030;SDS011;9648;51.130;13.978;2023-06-26T04:23:50;8.68;;;7.07;;
19030;SDS011;9648;51.130;13.978;2023-06-26T04:26:17;9.00;;;7.35;;
19030;SDS011;9648;51.130;13.978;2023-06-26T04:28:44;9.70;;;7.38;;
19030;SDS011;9648;51.130;13.978;2023-06-26T04:31:11;10.30;;;7.70;;
19030;SDS011;9648;51.130;13.978;2023-06-26T04:33:39;9.10;;;7.13;;
19030;SDS011;9648;51.130;13.978;2023-06-26T04:36:06;10.70;;;7.35;;
19030;SDS011;9648;51.130;13.978;2023-06-26T04:38:33;10.33;;;7.40;;
19030;SDS011;9648;51.130;13.978;2023-06-26T04:41:00;11.20;;;7.75;;
19030;SDS011;9648;51.130;13.978;2023-06-26T04:43:28;10.30;;;7.88;;
19030;SDS011;9648;51.130;13.978;2023-06-26T04:45:54;10.23;;;7.38;;
19030;SDS011;9648;51.130;13.978;2023-06-26T04:48:22;11.27;;;7.90;;
19030;SDS011;9648;51.130;13.978;2023-06-26T04:50:50;11.80;;;7.47;;
19030;SDS011;9648;51.130;13.978;2023-06-26T04:53:19;9.87;;;7.43;;
19030;SDS011;9648;51.130;13.978;2023-06-26T04:55:46;10.40;;;7.63;;
19030;SDS011;9648;51.130;13.978;2023-06-26T04:58:12;9.60;;;7.25;;
19030;SDS011;9648;51.130;13.978;2023-06-26T05:00:39;8.13;;;6.70;;
19030;SDS011;9648;51.130;13.978;2023-06-26T05:03:07;11.40;;;7.78;;
19030;SDS011;9648;51.130;13.978;2023-06-26T05:05:34;9.93;;;7.10;;
19030;SDS011;9648;51.130;13.978;2023-06-26T05:08:14;9.02;;;7.03;;
19030;SDS011;9648;51.130;13.978;2023-06-26T05:10:41;9.50;;;6.90;;
19030;SDS011;9648;51.130;13.978;2023-06-26T05:13:08;8.55;;;6.90;;
19030;SDS011;9648;51.130;13.978;2023-06-26T05:15:34;8.00;;;6.27;;
19030;SDS011;9648;51.130;13.978;2023-06-26T05:18:01;10.00;;;7.22;;
19030;SDS011;9648;51.130;13.978;2023-06-26T05:20:28;10.30;;;6.80;;
19030;SDS011;9648;51.130;13.978;2023-06-26T05:22:55;10.20;;;6.95;;
19030;SDS011;9648;51.130;13.978;2023-06-26T05:25:24;9.25;;;6.63;;
19030;SDS011;9648;51.130;13.978;2023-06-26T05:27:52;9.45;;;6.80;;
19030;SDS011;9648;51.130;13.978;2023-06-26T05:30:19;10.27;;;6.70;;
19030;SDS011;9648;51.130;13.978;2023-06-26T05:32:46;8.20;;;6.13;;
19030;SDS011;9648;51.130;13.978;2023-06-26T05:35:13;8.05;;;6.25;;
19030;SDS011;9648;51.130;13.978;2023-06-26T05:37:41;7.43;;;6.28;;
19030;SDS011;9648;51.130;13.978;2023-06-26T05:40:09;9.07;;;6.20;;
19030;SDS011;9648;51.130;13.978;2023-06-26T05:42:38;7.93;;;5.73;;
19030;SDS011;9648;51.130;13.978;2023-06-26T05:45:05;7.10;;;6.07;;
19030;SDS011;9648;51.130;13.978;2023-06-26T05:47:32;9.70;;;6.22;;
19030;SDS011;9648;51.130;13.978;2023-06-26T05:50:00;8.60;;;6.15;;
19030;SDS011;9648;51.130;13.978;2023-06-26T05:52:28;7.25;;;6.00;;
19030;SDS011;9648;51.130;13.978;2023-06-26T05:54:55;9.10;;;5.65;;
19030;SDS011;9648;51.130;13.978;2023-06-26T05:57:23;6.00;;;5.22;;
19030;SDS011;9648;51.130;13.978;2023-06-26T05:59:53;8.15;;;5.90;;
19030;SDS011;9648;51.130;13.978;2023-06-26T06:02:21;6.65;;;5.30;;
19030;SDS011;9648;51.130;13.978;2023-06-26T06:04:48;8.13;;;5.50;;
19030;SDS011;9648;51.130;13.978;2023-06-26T06:07:15;6.38;;;5.10;;
19030;SDS011;9648;51.130;13.978;2023-06-26T06:09:41;6.77;;;4.83;;
19030;SDS011;9648;51.130;13.978;2023-06-26T06:12:08;5.45;;;4.57;;
19030;SDS011;9648;51.130;13.978;2023-06-26T06:14:35;5.53;;;4.70;;
19030;SDS011;9648;51.130;13.978;2023-06-26T06:17:03;6.15;;;5.20;;
19030;SDS011;9648;51.130;13.978;2023-06-26T06:19:30;6.07;;;4.82;;
19030;SDS011;9648;51.130;13.978;2023-06-26T06:21:57;6.85;;;5.00;;
19030;SDS011;9648;51.130;13.978;2023-06-26T06:24:23;6.95;;;4.90;;
19030;SDS011;9648;51.130;13.978;2023-06-26T06:26:50;4.90;;;4.40;;
19030;SDS011;9648;51.130;13.978;2023-06-26T06:29:17;7.10;;;5.32;;
19030;SDS011;9648;51.130;13.978;2023-06-26T06:31:44;6.90;;;5.20;;
19030;SDS011;9648;51.130;13.978;2023-06-26T06:34:13;6.22;;;4.85;;
19030;SDS011;9648;51.130;13.978;2023-06-26T06:36:39;6.53;;;4.80;;
19030;SDS011;9648;51.130;13.978;2023-06-26T06:39:06;7.40;;;5.28;;
19030;SDS011;9648;51.130;13.978;2023-06-26T06:41:33;6.65;;;4.82;;
19030;SDS011;9648;51.130;13.978;2023-06-26T06:44:00;6.47;;;4.82;;
19030;SDS011;9648;51.130;13.978;2023-06-26T06:46:27;5.60;;;4.90;;
19030;SDS011;9648;51.130;13.978;2023-06-26T06:48:53;7.95;;;5.10;;
19030;SDS011;9648;51.130;13.978;2023-06-26T06:51:22;6.72;;;5.32;;
19030;SDS011;9648;51.130;13.978;2023-06-26T06:53:49;5.17;;;4.43;;
19030;SDS011;9648;51.130;13.978;2023-06-26T06:56:16;6.78;;;4.78;;
19030;SDS011;9648;51.130;13.978;2023-06-26T06:58:42;5.55;;;4.38;;
19030;SDS011;9648;51.130;13.978;2023-06-26T07:01:11;6.68;;;4.63;;
19030;SDS011;9648;51.130;13.978;2023-06-26T07:03:38;6.15;;;4.70;;
19030;SDS011;9648;51.130;13.978;2023-06-26T07:06:05;6.03;;;4.70;;
19030;SDS011;9648;51.130;13.978;2023-06-26T07:08:33;6.07;;;4.70;;
19030;SDS011;9648;51.130;13.978;2023-06-26T07:11:00;7.10;;;4.70;;
19030;SDS011;9648;51.130;13.978;2023-06-26T07:13:28;6.50;;;4.50;;
19030;SDS011;9648;51.130;13.978;2023-06-26T07:15:55;6.27;;;4.53;;
19030;SDS011;9648;51.130;13.978;2023-06-26T07:18:21;6.20;;;4.38;;
19030;SDS011;9648;51.130;13.978;2023-06-26T07:20:48;5.65;;;4.43;;
19030;SDS011;9648;51.130;13.978;2023-06-26T07:23:15;6.05;;;4.72;;
19030;SDS011;9648;51.130;13.978;2023-06-26T07:25:43;6.47;;;4.63;;
19030;SDS011;9648;51.130;13.978;2023-06-26T07:28:10;5.75;;;4.53;;
19030;SDS011;9648;51.130;13.978;2023-06-26T07:30:37;5.38;;;4.50;;
19030;SDS011;9648;51.130;13.978;2023-06-26T07:33:04;5.95;;;4.95;;
19030;SDS011;9648;51.130;13.978;2023-06-26T07:35:31;6.13;;;5.03;;
19030;SDS011;9648;51.130;13.978;2023-06-26T07:37:58;6.97;;;4.88;;
19030;SDS011;9648;51.130;13.978;2023-06-26T07:40:25;7.43;;;4.60;;
19030;SDS011;9648;51.130;13.978;2023-06-26T07:42:53;5.10;;;4.57;;
19030;SDS011;9648;51.130;13.978;2023-06-26T07:45:20;5.88;;;4.82;;
19030;SDS011;9648;51.130;13.978;2023-06-26T07:47:47;4.78;;;4.20;;
19030;SDS011;9648;51.130;13.978;2023-06-26T07:50:13;5.57;;;4.43;;
19030;SDS011;9648;51.130;13.978;2023-06-26T07:52:44;7.65;;;4.70;;
19030;SDS011;9648;51.130;13.978;2023-06-26T07:55:11;5.57;;;4.50;;
19030;SDS011;9648;51.130;13.978;2023-06-26T07:57:38;6.18;;;4.50;;
19030;SDS011;9648;51.130;13.978;2023-06-26T08:00:06;6.72;;;4.63;;
19030;SDS011;9648;51.130;13.978;2023-06-26T08:02:34;7.10;;;4.70;;
19030;SDS011;9648;51.130;13.978;2023-06-26T08:05:00;6.32;;;4.50;;
19030;SDS011;9648;51.130;13.978;2023-06-26T08:07:27;5.22;;;4.50;;
19030;SDS011;9648;51.130;13.978;2023-06-26T08:09:54;6.27;;;4.70;;
19030;SDS011;9648;51.130;13.978;2023-06-26T08:12:21;5.53;;;4.53;;
19030;SDS011;9648;51.130;13.978;2023-06-26T08:14:47;6.80;;;4.43;;
19030;SDS011;9648;51.130;13.978;2023-06-26T08:17:16;6.47;;;4.78;;
19030;SDS011;9648;51.130;13.978;2023-06-26T08:19:42;6.40;;;4.20;;
19030;SDS011;9648;51.130;13.978;2023-06-26T08:22:09;5.27;;;4.63;;
19030;SDS011;9648;51.130;13.978;2023-06-26T08:24:36;6.83;;;4.40;;
19030;SDS011;9648;51.130;13.978;2023-06-26T08:27:02;5.77;;;4.33;;
19030;SDS011;9648;51.130;13.978;2023-06-26T08:29:30;6.10;;;4.65;;
19030;SDS011;9648;51.130;13.978;2023-06-26T08:31:57;5.88;;;4.35;;
19030;SDS011;9648;51.130;13.978;2023-06-26T08:34:25;6.05;;;4.68;;
19030;SDS011;9648;51.130;13.978;2023-06-26T08:36:52;5.30;;;4.60;;
19030;SDS011;9648;51.130;13.978;2023-06-26T08:39:18;5.80;;;4.70;;
19030;SDS011;9648;51.130;13.978;2023-06-26T08:41:45;5.60;;;4.50;;
19030;SDS011;9648;51.130;13.978;2023-06-26T08:44:12;5.57;;;4.28;;
19030;SDS011;9648;51.130;13.978;2023-06-26T08:46:39;6.70;;;4.80;;
19030;SDS011;9648;51.130;13.978;2023-06-26T08:49:08;5.20;;;4.40;;
19030;SDS011;9648;51.130;13.978;2023-06-26T08:51:42;5.75;;;4.55;;
19030;SDS011;9648;51.130;13.978;2023-06-26T08:54:16;5.63;;;4.38;;
19030;SDS011;9648;51.130;13.978;2023-06-26T08:56:48;5.18;;;4.28;;
19030;SDS011;9648;51.130;13.978;2023-06-26T08:59:15;5.53;;;4.80;;
19030;SDS011;9648;51.130;13.978;2023-06-26T09:01:42;5.35;;;4.20;;
19030;SDS011;9648;51.130;13.978;2023-06-26T09:04:09;6.00;;;4.63;;
19030;SDS011;9648;51.130;13.978;2023-06-26T09:06:36;5.72;;;4.50;;
19030;SDS011;9648;51.130;13.978;2023-06-26T09:09:05;5.20;;;4.20;;
19030;SDS011;9648;51.130;13.978;2023-06-26T09:11:32;6.95;;;4.57;;
19030;SDS011;9648;51.130;13.978;2023-06-26T09:13:59;4.75;;;4.13;;
19030;SDS011;9648;51.130;13.978;2023-06-26T09:16:26;6.43;;;5.00;;
19030;SDS011;9648;51.130;13.978;2023-06-26T09:18:53;5.55;;;4.60;;
19030;SDS011;9648;51.130;13.978;2023-06-26T09:21:21;5.40;;;4.10;;
19030;SDS011;9648;51.130;13.978;2023-06-26T09:23:49;5.50;;;4.30;;
19030;SDS011;9648;51.130;13.978;2023-06-26T09:26:17;5.72;;;4.55;;
19030;SDS011;9648;51.130;13.978;2023-06-26T09:28:44;6.03;;;4.43;;
19030;SDS011;9648;51.130;13.978;2023-06-26T09:31:12;8.40;;;4.80;;
19030;SDS011;9648;51.130;13.978;2023-06-26T09:33:38;5.67;;;4.33;;
19030;SDS011;9648;51.130;13.978;2023-06-26T09:36:07;5.70;;;4.30;;
19030;SDS011;9648;51.130;13.978;2023-06-26T09:38:44;5.37;;;4.50;;
19030;SDS011;9648;51.130;13.978;2023-06-26T09:41:10;5.90;;;4.60;;
19030;SDS011;9648;51.130;13.978;2023-06-26T09:43:46;6.83;;;4.40;;
19030;SDS011;9648;51.130;13.978;2023-06-26T09:46:15;5.20;;;4.57;;
19030;SDS011;9648;51.130;13.978;2023-06-26T09:48:42;4.63;;;4.20;;
19030;SDS011;9648;51.130;13.978;2023-06-26T09:51:09;6.38;;;4.60;;
19030;SDS011;9648;51.130;13.978;2023-06-26T09:53:36;6.43;;;4.60;;
19030;SDS011;9648;51.130;13.978;2023-06-26T09:56:05;8.02;;;4.75;;
19030;SDS011;9648;51.130;13.978;2023-06-26T09:58:32;6.50;;;4.75;;
19030;SDS011;9648;51.130;13.978;2023-06-26T10:01:01;5.20;;;4.65;;
19030;SDS011;9648;51.130;13.978;2023-06-26T10:03:28;5.47;;;4.53;;
19030;SDS011;9648;51.130;13.978;2023-06-26T10:05:55;5.82;;;4.97;;
19030;SDS011;9648;51.130;13.978;2023-06-26T10:08:22;7.87;;;6.10;;
19030;SDS011;9648;51.130;13.978;2023-06-26T10:10:49;6.75;;;5.18;;
19030;SDS011;9648;51.130;13.978;2023-06-26T10:13:18;7.57;;;5.03;;
19030;SDS011;9648;51.130;13.978;2023-06-26T10:15:47;5.53;;;4.80;;
19030;SDS011;9648;51.130;13.978;2023-06-26T10:18:18;5.50;;;4.57;;
19030;SDS011;9648;51.130;13.978;2023-06-26T10:20:48;5.80;;;4.70;;
19030;SDS011;9648;51.130;13.978;2023-06-26T10:23:16;6.07;;;4.80;;
19030;SDS011;9648;51.130;13.978;2023-06-26T10:25:46;5.55;;;4.63;;
19030;SDS011;9648;51.130;13.978;2023-06-26T10:28:16;6.17;;;4.80;;
19030;SDS011;9648;51.130;13.978;2023-06-26T10:30:43;5.60;;;4.90;;
19030;SDS011;9648;51.130;13.978;2023-06-26T10:33:14;6.43;;;4.60;;
19030;SDS011;9648;51.130;13.978;2023-06-26T10:35:43;6.00;;;4.80;;
19030;SDS011;9648;51.130;13.978;2023-06-26T10:38:11;5.50;;;4.65;;
19030;SDS011;9648;51.130;13.978;2023-06-26T10:40:41;8.77;;;5.00;;
19030;SDS011;9648;51.130;13.978;2023-06-26T10:43:10;8.63;;;5.30;;
19030;SDS011;9648;51.130;13.978;2023-06-26T10:45:42;6.00;;;5.00;;
19030;SDS011;9648;51.130;13.978;2023-06-26T10:48:12;5.68;;;4.68;;
19030;SDS011;9648;51.130;13.978;2023-06-26T10:50:40;7.23;;;5.20;;
19030;SDS011;9648;51.130;13.978;2023-06-26T10:53:08;9.13;;;5.10;;
19030;SDS011;9648;51.130;13.978;2023-06-26T10:55:36;8.02;;;4.95;;
19030;SDS011;9648;51.130;13.978;2023-06-26T10:58:03;7.30;;;5.25;;
19030;SDS011;9648;51.130;13.978;2023-06-26T11:00:30;5.60;;;4.50;;
19030;SDS011;9648;51.130;13.978;2023-06-26T11:02:57;6.55;;;4.95;;
19030;SDS011;9648;51.130;13.978;2023-06-26T11:05:26;7.57;;;5.00;;
19030;SDS011;9648;51.130;13.978;2023-06-26T11:08:03;5.65;;;4.50;;
19030;SDS011;9648;51.130;13.978;2023-06-26T11:13:18;6.25;;;4.65;;
19030;SDS011;9648;51.130;13.978;2023-06-26T11:15:46;6.50;;;4.85;;
19030;SDS011;9648;51.130;13.978;2023-06-26T11:18:14;7.22;;;4.40;;
19030;SDS011;9648;51.130;13.978;2023-06-26T11:20:41;5.57;;;4.40;;
19030;SDS011;9648;51.130;13.978;2023-06-26T11:23:08;5.88;;;4.35;;
19030;SDS011;9648;51.130;13.978;2023-06-26T11:25:35;6.70;;;4.30;;
19030;SDS011;9648;51.130;13.978;2023-06-26T11:28:04;7.07;;;4.20;;
19030;SDS011;9648;51.130;13.978;2023-06-26T11:30:31;6.07;;;4.18;;
19030;SDS011;9648;51.130;13.978;2023-06-26T11:33:05;7.60;;;5.43;;
19030;SDS011;9648;51.130;13.978;2023-06-26T11:35:33;4.88;;;4.38;;
19030;SDS011;9648;51.130;13.978;2023-06-26T11:38:00;5.88;;;4.53;;
19030;SDS011;9648;51.130;13.978;2023-06-26T11:40:30;8.10;;;4.60;;
19030;SDS011;9648;51.130;13.978;2023-06-26T11:42:58;6.22;;;4.20;;
19030;SDS011;9648;51.130;13.978;2023-06-26T11:45:27;5.70;;;4.55;;
19030;SDS011;9648;51.130;13.978;2023-06-26T11:47:54;5.63;;;4.38;;
19030;SDS011;9648;51.130;13.978;2023-06-26T11:50:21;8.80;;;4.45;;
19030;SDS011;9648;51.130;13.978;2023-06-26T11:52:52;5.32;;;4.13;;
19030;SDS011;9648;51.130;13.978;2023-06-26T11:55:20;5.55;;;4.18;;
19030;SDS011;9648;51.130;13.978;2023-06-26T11:57:47;5.15;;;4.22;;
19030;SDS011;9648;51.130;13.978;2023-06-26T12:00:15;5.18;;;4.40;;
19030;SDS011;9648;51.130;13.978;2023-06-26T12:02:44;4.70;;;3.97;;
19030;SDS011;9648;51.130;13.978;2023-06-26T12:05:12;4.68;;;4.18;;
19030;SDS011;9648;51.130;13.978;2023-06-26T12:07:39;6.45;;;4.43;;
19030;SDS011;9648;51.130;13.978;2023-06-26T12:10:07;4.43;;;3.90;;
19030;SDS011;9648;51.130;13.978;2023-06-26T12:12:36;5.18;;;4.30;;
19030;SDS011;9648;51.130;13.978;2023-06-26T12:15:04;6.25;;;4.45;;
19030;SDS011;9648;51.130;13.978;2023-06-26T12:17:33;5.30;;;4.53;;
19030;SDS011;9648;51.130;13.978;2023-06-26T12:20:05;5.53;;;4.50;;
19030;SDS011;9648;51.130;13.978;2023-06-26T12:22:43;5.03;;;3.72;;
19030;SDS011;9648;51.130;13.978;2023-06-26T12:25:12;5.68;;;4.22;;
19030;SDS011;9648;51.130;13.978;2023-06-26T12:27:39;5.30;;;4.40;;
19030;SDS011;9648;51.130;13.978;2023-06-26T12:30:06;4.82;;;4.00;;
19030;SDS011;9648;51.130;13.978;2023-06-26T12:32:34;7.20;;;4.10;;
19030;SDS011;9648;51.130;13.978;2023-06-26T12:35:01;5.03;;;4.10;;
19030;SDS011;9648;51.130;13.978;2023-06-26T12:37:29;4.90;;;4.15;;
19030;SDS011;9648;51.130;13.978;2023-06-26T12:40:03;4.47;;;4.07;;
19030;SDS011;9648;51.130;13.978;2023-06-26T12:42:33;5.05;;;3.88;;
19030;SDS011;9648;51.130;13.978;2023-06-26T12:44:59;4.77;;;4.10;;
19030;SDS011;9648;51.130;13.978;2023-06-26T12:47:37;4.93;;;4.13;;
19030;SDS011;9648;51.130;13.978;2023-06-26T12:50:06;4.72;;;3.92;;
19030;SDS011;9648;51.130;13.978;2023-06-26T12:52:35;5.18;;;3.95;;
19030;SDS011;9648;51.130;13.978;2023-06-26T12:55:02;5.75;;;3.90;;
19030;SDS011;9648;51.130;13.978;2023-06-26T12:57:29;4.80;;;3.92;;
19030;SDS011;9648;51.130;13.978;2023-06-26T12:59:56;4.90;;;4.17;;
19030;SDS011;9648;51.130;13.978;2023-06-26T13:02:22;4.20;;;3.63;;
19030;SDS011;9648;51.130;13.978;2023-06-26T13:04:49;4.30;;;3.78;;
19030;SDS011;9648;51.130;13.978;2023-06-26T13:07:16;5.47;;;4.28;;
19030;SDS011;9648;51.130;13.978;2023-06-26T13:09:44;6.32;;;3.78;;
19030;SDS011;9648;51.130;13.978;2023-06-26T13:12:13;4.63;;;3.78;;
19030;SDS011;9648;51.130;13.978;2023-06-26T13:14:40;5.28;;;4.00;;
19030;SDS011;9648;51.130;13.978;2023-06-26T13:17:06;6.65;;;3.90;;
19030;SDS011;9648;51.130;13.978;2023-06-26T13:19:33;5.63;;;4.13;;
19030;SDS011;9648;51.130;13.978;2023-06-26T13:22:00;5.17;;;4.07;;
19030;SDS011;9648;51.130;13.978;2023-06-26T13:24:27;4.40;;;4.00;;
19030;SDS011;9648;51.130;13.978;2023-06-26T13:26:55;5.35;;;4.05;;
19030;SDS011;9648;51.130;13.978;2023-06-26T13:29:21;5.30;;;4.13;;
19030;SDS011;9648;51.130;13.978;2023-06-26T13:31:48;5.65;;;4.15;;
19030;SDS011;9648;51.130;13.978;2023-06-26T13:34:21;4.00;;;3.58;;
19030;SDS011;9648;51.130;13.978;2023-06-26T13:36:49;6.43;;;4.20;;
19030;SDS011;9648;51.130;13.978;2023-06-26T13:39:15;5.43;;;4.05;;
19030;SDS011;9648;51.130;13.978;2023-06-26T13:41:42;5.55;;;4.30;;
19030;SDS011;9648;51.130;13.978;2023-06-26T13:44:10;6.93;;;4.20;;
19030;SDS011;9648;51.130;13.978;2023-06-26T13:46:37;7.00;;;3.90;;
19030;SDS011;9648;51.130;13.978;2023-06-26T13:49:03;6.18;;;4.30;;
19030;SDS011;9648;51.130;13.978;2023-06-26T13:51:30;4.93;;;3.97;;
19030;SDS011;9648;51.130;13.978;2023-06-26T13:53:57;6.25;;;4.20;;
19030;SDS011;9648;51.130;13.978;2023-06-26T13:56:25;5.90;;;3.75;;
19030;SDS011;9648;51.130;13.978;2023-06-26T13:58:55;4.40;;;3.72;;
19030;SDS011;9648;51.130;13.978;2023-06-26T14:01:23;5.85;;;4.50;;
19030;SDS011;9648;51.130;13.978;2023-06-26T14:03:50;5.60;;;4.47;;
19030;SDS011;9648;51.130;13.978;2023-06-26T14:06:17;5.45;;;4.22;;
19030;SDS011;9648;51.130;13.978;2023-06-26T14:08:43;4.57;;;4.00;;
19030;SDS011;9648;51.130;13.978;2023-06-26T14:11:10;4.57;;;4.07;;
19030;SDS011;9648;51.130;13.978;2023-06-26T14:13:37;5.45;;;3.90;;
19030;SDS011;9648;51.130;13.978;2023-06-26T14:16:04;4.72;;;4.22;;
19030;SDS011;9648;51.130;13.978;2023-06-26T14:18:33;4.97;;;4.00;;
19030;SDS011;9648;51.130;13.978;2023-06-26T14:21:00;5.28;;;3.97;;
19030;SDS011;9648;51.130;13.978;2023-06-26T14:23:29;5.22;;;3.85;;
19030;SDS011;9648;51.130;13.978;2023-06-26T14:25:56;4.60;;;3.95;;
19030;SDS011;9648;51.130;13.978;2023-06-26T14:28:22;5.32;;;3.80;;
19030;SDS011;9648;51.130;13.978;2023-06-26T14:30:49;5.32;;;4.00;;
19030;SDS011;9648;51.130;13.978;2023-06-26T14:33:16;6.13;;;4.07;;
19030;SDS011;9648;51.130;13.978;2023-06-26T14:35:44;5.05;;;4.18;;
19030;SDS011;9648;51.130;13.978;2023-06-26T14:38:11;5.57;;;4.60;;
19030;SDS011;9648;51.130;13.978;2023-06-26T14:40:38;5.43;;;4.25;;
19030;SDS011;9648;51.130;13.978;2023-06-26T14:43:04;7.15;;;4.32;;
19030;SDS011;9648;51.130;13.978;2023-06-26T14:45:31;5.30;;;4.10;;
19030;SDS011;9648;51.130;13.978;2023-06-26T14:47:58;5.13;;;4.13;;
19030;SDS011;9648;51.130;13.978;2023-06-26T14:50:24;5.83;;;4.37;;